createdAt,value
2018-12-03T00:01:52.592Z,12.57
2018-12-03T00:04:56.076Z,12.64
2018-12-03T00:07:59.667Z,12.62
2018-12-03T00:11:03.310Z,12.57
2018-12-03T00:14:06.937Z,12.57
2018-12-03T00:17:10.502Z,12.54
2018-12-03T00:20:14.125Z,12.55
2018-12-03T00:23:18.750Z,12.57
2018-12-03T00:26:23.322Z,12.64
2018-12-03T00:29:28.178Z,12.68
2018-12-03T00:32:31.873Z,12.67
2018-12-03T00:35:36.455Z,12.63
2018-12-03T00:38:41.074Z,12.70
2018-12-03T00:41:44.653Z,12.64
2018-12-03T00:44:48.283Z,12.59
2018-12-03T00:47:51.929Z,12.60
2018-12-03T00:50:55.420Z,12.63
2018-12-03T00:53:58.988Z,12.59
2018-12-03T00:57:02.625Z,12.57
2018-12-03T01:00:08.810Z,12.60
2018-12-03T01:03:12.500Z,12.61
2018-12-03T01:06:16.217Z,12.59
2018-12-03T01:09:19.797Z,12.54
2018-12-03T01:12:23.256Z,12.52
2018-12-03T01:15:26.886Z,12.59
2018-12-03T01:18:30.414Z,12.58
2018-12-03T01:21:33.974Z,12.52
2018-12-03T01:24:37.530Z,12.55
2018-12-03T01:27:41.363Z,12.61
2018-12-03T01:30:44.865Z,12.62
2018-12-03T01:33:48.503Z,12.53
2018-12-03T01:36:52.134Z,12.50
2018-12-03T01:39:55.653Z,12.54
2018-12-03T01:42:59.175Z,12.57
2018-12-03T01:46:02.704Z,12.57
2018-12-03T01:49:06.359Z,12.61
2018-12-03T01:52:09.881Z,12.65
2018-12-03T01:55:13.524Z,12.59
2018-12-03T01:58:17.180Z,12.62
2018-12-03T02:01:20.675Z,12.66
2018-12-03T02:04:24.218Z,12.62
2018-12-03T02:07:27.750Z,12.58
2018-12-03T02:10:31.252Z,12.58
2018-12-03T02:13:34.768Z,12.63
2018-12-03T02:16:38.420Z,12.63
2018-12-03T02:19:42.485Z,12.61
2018-12-03T02:22:46.095Z,12.67
2018-12-03T02:25:49.765Z,12.64
2018-12-03T02:28:53.210Z,12.63
2018-12-03T02:31:56.859Z,12.65
2018-12-03T02:35:00.602Z,12.69
2018-12-03T02:38:04.251Z,12.64
2018-12-03T02:41:07.780Z,12.70
2018-12-03T02:44:11.370Z,12.68
2018-12-03T02:47:15.009Z,12.68
2018-12-03T02:50:18.595Z,12.67
2018-12-03T02:53:22.190Z,12.64
2018-12-03T02:56:25.630Z,12.68
2018-12-03T02:59:29.277Z,12.75
2018-12-03T03:02:32.816Z,12.74
2018-12-03T03:05:36.408Z,12.75
2018-12-03T03:08:40.038Z,12.76
2018-12-03T03:11:43.774Z,12.75
2018-12-03T03:14:47.539Z,12.79
2018-12-03T03:17:51.079Z,12.75
2018-12-03T03:20:54.669Z,12.72
2018-12-03T03:23:58.208Z,12.72
2018-12-03T03:27:01.752Z,12.69
2018-12-03T03:30:08.092Z,12.73
2018-12-03T03:33:11.642Z,12.72
2018-12-03T03:36:15.243Z,12.74
2018-12-03T03:39:18.759Z,12.68
2018-12-03T03:42:22.279Z,12.69
2018-12-03T03:45:26.500Z,12.67
2018-12-03T03:48:30.079Z,12.74
2018-12-03T03:51:33.546Z,12.72
2018-12-03T03:54:37.045Z,12.74
2018-12-03T03:57:40.640Z,12.72
2018-12-03T04:00:44.286Z,12.71
2018-12-03T04:03:47.822Z,12.74
2018-12-03T04:06:51.385Z,12.72
2018-12-03T04:09:54.934Z,12.68
2018-12-03T04:12:58.503Z,12.72
2018-12-03T04:16:01.916Z,12.67
2018-12-03T04:19:05.858Z,12.66
2018-12-03T04:22:09.402Z,12.64
2018-12-03T04:25:13.488Z,12.65
2018-12-03T04:28:17.045Z,12.61
2018-12-03T04:31:20.422Z,12.58
2018-12-03T04:34:24.030Z,12.53
2018-12-03T04:37:27.528Z,12.58
2018-12-03T04:40:31.043Z,12.56
2018-12-03T04:43:34.545Z,12.57
2018-12-03T04:46:38.155Z,12.62
2018-12-03T04:49:41.690Z,12.60
2018-12-03T04:52:45.235Z,12.61
2018-12-03T04:55:48.759Z,12.61
2018-12-03T04:58:52.383Z,12.58
2018-12-03T05:01:56.024Z,12.61
2018-12-03T05:04:59.585Z,12.59
2018-12-03T05:08:03.069Z,12.55
2018-12-03T05:11:06.987Z,12.59
2018-12-03T05:14:11.521Z,12.61
2018-12-03T05:17:15.217Z,12.63
2018-12-03T05:20:20.813Z,12.60
2018-12-03T05:23:24.369Z,12.64
2018-12-03T05:26:27.878Z,12.61
2018-12-03T05:29:31.394Z,12.62
2018-12-03T05:32:35.031Z,12.63
2018-12-03T05:35:38.777Z,12.64
2018-12-03T05:38:42.212Z,12.70
2018-12-03T05:41:45.690Z,12.66
2018-12-03T05:44:49.320Z,12.74
2018-12-03T05:47:52.871Z,12.80
2018-12-03T05:50:56.425Z,12.73
2018-12-03T05:54:00.025Z,12.71
2018-12-03T05:57:03.590Z,12.65
2018-12-03T06:00:12.568Z,12.68
2018-12-03T06:03:15.961Z,12.58
2018-12-03T06:06:20.477Z,12.59
2018-12-03T06:09:24.016Z,12.58
2018-12-03T06:12:27.486Z,12.54
2018-12-03T06:15:30.896Z,12.59
2018-12-03T06:18:34.558Z,12.62
2018-12-03T06:21:38.154Z,12.67
2018-12-03T06:24:41.855Z,12.67
2018-12-03T06:27:45.270Z,12.61
2018-12-03T06:30:48.758Z,12.59
2018-12-03T06:33:52.216Z,12.63
2018-12-03T06:36:55.933Z,12.62
2018-12-03T06:39:59.630Z,12.68
2018-12-03T06:43:03.398Z,12.71
2018-12-03T06:46:07.059Z,12.68
2018-12-03T06:49:10.794Z,12.65
2018-12-03T06:52:14.347Z,12.62
2018-12-03T06:55:18.031Z,12.55
2018-12-03T06:58:21.695Z,12.54
2018-12-03T07:01:26.269Z,12.55
2018-12-03T07:04:29.862Z,12.53
2018-12-03T07:07:33.526Z,12.63
2018-12-03T07:10:37.071Z,12.63
2018-12-03T07:13:40.736Z,12.60
2018-12-03T07:16:44.283Z,12.66
2018-12-03T07:19:47.835Z,12.65
2018-12-03T07:22:51.486Z,12.68
2018-12-03T07:25:55.065Z,12.62
2018-12-03T07:28:58.526Z,12.62
2018-12-03T07:32:02.332Z,12.63
2018-12-03T07:35:05.947Z,12.64
2018-12-03T07:38:09.513Z,12.62
2018-12-03T07:41:13.139Z,12.64
2018-12-03T07:44:16.734Z,12.72
2018-12-03T07:47:20.343Z,12.77
2018-12-03T07:50:24.738Z,12.71
2018-12-03T07:53:28.278Z,12.68
2018-12-03T07:56:31.980Z,12.70
2018-12-03T07:59:35.598Z,12.71
2018-12-03T08:02:39.305Z,12.73
2018-12-03T08:05:42.910Z,12.66
2018-12-03T08:08:46.535Z,12.68
2018-12-03T08:11:51.248Z,12.72
2018-12-03T08:14:54.857Z,12.76
2018-12-03T08:18:03.141Z,12.76
2018-12-03T08:21:08.399Z,12.78
2018-12-03T08:24:13.622Z,12.79
2018-12-03T08:27:17.152Z,12.83
2018-12-03T08:30:21.129Z,12.78
2018-12-03T08:33:24.871Z,12.74
2018-12-03T08:36:28.470Z,12.81
2018-12-03T08:39:32.296Z,12.78
2018-12-03T08:42:36.038Z,12.79
2018-12-03T08:45:39.604Z,12.75
2018-12-03T08:48:43.415Z,12.70
2018-12-03T08:51:48.037Z,12.74
2018-12-03T08:54:51.469Z,12.74
2018-12-03T08:57:55.023Z,12.76
2018-12-03T09:00:58.656Z,12.78
2018-12-03T09:04:08.634Z,12.76
2018-12-03T09:07:12.891Z,12.74
2018-12-03T09:10:16.908Z,12.88
2018-12-03T09:13:21.828Z,12.96
2018-12-03T09:16:25.714Z,12.93
2018-12-03T09:19:29.322Z,12.91
2018-12-03T09:22:33.218Z,12.93
2018-12-03T09:25:36.796Z,12.91
2018-12-03T09:28:40.378Z,12.87
2018-12-03T09:31:43.986Z,12.91
2018-12-03T09:34:47.431Z,12.86
2018-12-03T09:37:51.290Z,12.83
2018-12-03T09:41:00.772Z,12.78
2018-12-03T09:44:04.411Z,12.68
2018-12-03T09:47:08.035Z,12.60
2018-12-03T09:50:17.913Z,12.61
2018-12-03T09:53:21.499Z,12.45
2018-12-03T09:56:30.012Z,12.34
2018-12-03T09:59:33.636Z,12.35
2018-12-03T10:02:37.425Z,12.32
2018-12-03T10:05:45.559Z,12.33
2018-12-03T10:08:49.115Z,12.31
2018-12-03T10:11:57.632Z,12.32
2018-12-03T10:15:01.282Z,12.37
2018-12-03T10:18:05.181Z,12.40
2018-12-03T10:21:08.654Z,12.43
2018-12-03T10:24:13.060Z,12.47
2018-12-03T10:27:16.548Z,12.52
2018-12-03T10:30:21.214Z,12.57
2018-12-03T10:33:28.253Z,12.53
2018-12-03T10:36:31.919Z,12.59
2018-12-03T10:39:36.796Z,12.59
2018-12-03T10:42:40.496Z,12.48
2018-12-03T10:45:43.975Z,12.51
2018-12-03T10:48:47.490Z,12.48
2018-12-03T10:51:51.006Z,12.50
2018-12-03T10:54:54.732Z,12.52
2018-12-03T10:57:58.270Z,12.49
2018-12-03T11:01:11.415Z,12.55
2018-12-03T11:04:20.388Z,12.51
2018-12-03T11:07:23.986Z,12.50
2018-12-03T11:10:43.287Z,12.39
2018-12-03T11:13:46.858Z,12.38
2018-12-03T11:16:50.466Z,12.41
2018-12-03T11:19:54.121Z,12.41
2018-12-03T11:22:57.884Z,12.38
2018-12-03T11:26:01.406Z,12.34
2018-12-03T11:29:06.091Z,12.31
2018-12-03T11:32:09.705Z,12.25
2018-12-03T11:35:13.676Z,12.21
2018-12-03T11:38:40.761Z,12.16
2018-12-03T11:41:44.514Z,12.09
2018-12-03T11:44:48.011Z,12.11
2018-12-03T11:47:51.617Z,12.10
2018-12-03T11:50:55.145Z,12.04
2018-12-03T11:53:58.735Z,12.07
2018-12-03T11:57:02.262Z,12.07
2018-12-03T12:00:09.927Z,12.05
2018-12-03T12:03:13.337Z,12.02
2018-12-03T12:06:16.921Z,11.98
2018-12-03T12:09:22.840Z,11.97
2018-12-03T12:12:26.390Z,12.02
2018-12-03T12:15:31.494Z,12.10
2018-12-03T12:18:35.057Z,12.18
2018-12-03T12:21:38.664Z,12.31
2018-12-03T12:24:43.408Z,12.35
2018-12-03T12:27:49.461Z,12.47
2018-12-03T12:30:54.156Z,12.59
2018-12-03T12:33:57.895Z,12.63
2018-12-03T12:37:01.660Z,12.58
2018-12-03T12:40:08.123Z,12.64
2018-12-03T12:43:11.626Z,12.64
2018-12-03T12:46:19.172Z,12.64
2018-12-03T12:49:22.799Z,12.69
2018-12-03T12:52:26.743Z,12.73
2018-12-03T12:55:30.350Z,12.79
2018-12-03T12:58:34.182Z,12.79
2018-12-03T13:01:37.817Z,12.78
2018-12-03T13:04:41.516Z,12.72
2018-12-03T13:07:45.534Z,12.70
2018-12-03T13:10:49.373Z,12.67
2018-12-03T13:13:53.203Z,12.72
2018-12-03T13:16:56.761Z,12.72
2018-12-03T13:20:00.414Z,12.74
2018-12-03T13:23:04.541Z,12.76
2018-12-03T13:26:08.784Z,12.80
2018-12-03T13:29:12.557Z,12.95
2018-12-03T13:32:16.097Z,13.03
2018-12-03T13:35:19.524Z,13.09
2018-12-03T13:38:23.145Z,13.14
2018-12-03T13:41:26.655Z,13.08
2018-12-03T13:44:30.281Z,13.06
2018-12-03T13:47:33.716Z,12.98
2018-12-03T13:50:37.132Z,12.94
2018-12-03T13:53:40.788Z,12.97
2018-12-03T13:56:44.324Z,12.99
2018-12-03T13:59:47.889Z,12.94
2018-12-03T14:02:55.632Z,12.97
2018-12-03T14:06:14.952Z,12.72
2018-12-03T14:09:36.514Z,12.11
2018-12-03T14:12:54.850Z,11.95
2018-12-03T14:16:29.531Z,11.82
2018-12-03T14:19:33.712Z,11.76
2018-12-03T14:22:45.553Z,11.64
2018-12-03T14:25:50.095Z,11.57
2018-12-03T14:28:53.707Z,11.65
2018-12-03T14:31:57.209Z,11.66
2018-12-03T14:35:00.770Z,11.71
2018-12-03T14:38:04.190Z,11.72
2018-12-03T14:41:07.700Z,11.73
2018-12-03T14:44:11.316Z,11.66
2018-12-03T14:47:15.756Z,11.68
2018-12-03T14:50:19.225Z,11.68
2018-12-03T14:53:22.749Z,11.66
2018-12-03T14:56:26.360Z,11.69
2018-12-03T14:59:30.507Z,11.69
2018-12-03T15:02:33.942Z,11.70
2018-12-03T15:05:37.376Z,11.66
2018-12-03T15:08:40.822Z,11.68
2018-12-03T15:11:44.222Z,11.69
2018-12-03T15:14:47.767Z,11.70
2018-12-03T15:17:52.294Z,11.77
2018-12-03T15:20:56.701Z,11.72
2018-12-03T15:24:00.235Z,11.71
2018-12-03T15:27:03.659Z,11.71
2018-12-03T15:30:09.006Z,11.72
2018-12-03T15:33:12.590Z,11.72
2018-12-03T15:36:16.309Z,11.73
2018-12-03T15:39:20.021Z,11.77
2018-12-03T15:42:23.715Z,11.81
2018-12-03T15:45:27.275Z,11.87
2018-12-03T15:48:30.932Z,12.02
2018-12-03T15:51:34.415Z,12.19
2018-12-03T15:54:37.935Z,12.35
2018-12-03T15:57:41.492Z,12.41
2018-12-03T16:00:45.173Z,12.51
2018-12-03T16:03:48.801Z,12.47
2018-12-03T16:06:53.593Z,12.46
2018-12-03T16:09:57.094Z,12.42
2018-12-03T16:13:00.717Z,12.42
2018-12-03T16:16:04.328Z,12.44
2018-12-03T16:19:07.965Z,12.45
2018-12-03T16:22:11.548Z,12.45
2018-12-03T16:25:15.286Z,12.48
2018-12-03T16:28:18.830Z,12.51
2018-12-03T16:31:22.348Z,12.59
2018-12-03T16:34:26.027Z,12.58
2018-12-03T16:37:29.706Z,12.63
2018-12-03T16:40:33.202Z,12.68
2018-12-03T16:43:36.810Z,12.67
2018-12-03T16:46:40.595Z,12.71
2018-12-03T16:49:44.176Z,12.77
2018-12-03T16:52:47.613Z,12.81
2018-12-03T16:55:51.115Z,12.85
2018-12-03T16:58:54.720Z,12.85
2018-12-03T17:01:58.366Z,12.85
2018-12-03T17:05:02.324Z,12.80
2018-12-03T17:08:05.900Z,12.79
2018-12-03T17:11:10.029Z,12.84
2018-12-03T17:14:13.643Z,12.85
2018-12-03T17:17:17.361Z,12.89
2018-12-03T17:20:37.443Z,12.86
2018-12-03T17:23:55.897Z,12.95
2018-12-03T17:26:59.483Z,12.91
2018-12-03T17:30:03.251Z,12.88
2018-12-03T17:33:06.902Z,12.95
2018-12-03T17:36:10.479Z,12.92
2018-12-03T17:39:14.061Z,12.96
2018-12-03T17:42:19.167Z,12.97
2018-12-03T17:45:22.779Z,12.93
2018-12-03T17:48:27.489Z,12.90
2018-12-03T17:51:31.022Z,12.90
2018-12-03T17:54:34.588Z,12.91
2018-12-03T17:57:38.196Z,12.93
2018-12-03T18:00:42.458Z,12.90
2018-12-03T18:03:45.917Z,12.92
2018-12-03T18:06:49.816Z,12.96
2018-12-03T18:09:53.925Z,12.84
2018-12-03T18:12:57.713Z,12.79
2018-12-03T18:16:01.153Z,12.77
2018-12-03T18:19:04.944Z,12.73
2018-12-03T18:22:08.796Z,12.70
2018-12-03T18:25:12.684Z,12.69
2018-12-03T18:28:17.412Z,12.67
2018-12-03T18:31:21.032Z,12.68
2018-12-03T18:34:24.546Z,12.67
2018-12-03T18:37:28.038Z,12.72
2018-12-03T18:40:31.472Z,12.67
2018-12-03T18:43:34.949Z,12.63
2018-12-03T18:46:38.427Z,12.56
2018-12-03T18:49:45.648Z,12.35
2018-12-03T18:52:49.125Z,12.25
2018-12-03T18:55:53.027Z,12.29
2018-12-03T18:59:01.130Z,12.11
2018-12-03T19:02:05.080Z,12.03
2018-12-03T19:05:08.682Z,11.95
2018-12-03T19:08:12.256Z,12.01
2018-12-03T19:11:15.920Z,11.99
2018-12-03T19:14:19.486Z,11.85
2018-12-03T19:17:23.057Z,11.93
2018-12-03T19:20:26.598Z,11.95
2018-12-03T19:23:30.369Z,12.00
2018-12-03T19:26:33.771Z,12.10
2018-12-03T19:29:38.914Z,12.13
2018-12-03T19:32:40.915Z,12.17
2018-12-03T19:35:46.503Z,12.16
2018-12-03T19:38:50.032Z,11.90
2018-12-03T19:41:53.751Z,11.88
2018-12-03T19:44:57.462Z,11.88
2018-12-03T19:48:01.377Z,11.91
2018-12-03T19:51:05.046Z,11.94
2018-12-03T19:54:08.624Z,11.90
2018-12-03T19:57:12.563Z,11.83
2018-12-03T20:00:16.147Z,11.75
2018-12-03T20:03:19.744Z,11.78
2018-12-03T20:06:24.289Z,11.74
2018-12-03T20:09:27.887Z,11.80
2018-12-03T20:12:32.559Z,11.84
2018-12-03T20:15:36.013Z,11.85
2018-12-03T20:18:40.761Z,11.81
2018-12-03T20:21:45.778Z,11.80
2018-12-03T20:24:49.408Z,11.82
2018-12-03T20:27:57.903Z,11.82
2018-12-03T20:31:16.261Z,11.83
2018-12-03T20:34:28.075Z,11.80
2018-12-03T20:37:43.538Z,11.82
2018-12-03T20:40:58.611Z,11.89
2018-12-03T20:44:20.619Z,11.90
2018-12-03T20:47:28.058Z,11.86
2018-12-03T20:51:13.855Z,11.87
2018-12-03T20:54:17.423Z,11.88
2018-12-03T20:57:21.070Z,11.88
2018-12-03T21:00:24.738Z,11.86
2018-12-03T21:03:28.288Z,11.93
2018-12-03T21:06:31.934Z,11.92
2018-12-03T21:09:35.571Z,11.96
2018-12-03T21:12:39.172Z,11.99
2018-12-03T21:15:42.775Z,12.08
2018-12-03T21:18:46.470Z,12.08
2018-12-03T21:21:50.735Z,12.06
2018-12-03T21:24:54.530Z,11.99
2018-12-03T21:27:58.085Z,11.95
2018-12-03T21:31:01.638Z,11.89
2018-12-03T21:34:05.268Z,11.84
2018-12-03T21:37:08.814Z,11.78
2018-12-03T21:40:12.491Z,11.71
2018-12-03T21:43:16.511Z,11.70
2018-12-03T21:46:21.012Z,11.66
2018-12-03T21:49:24.496Z,11.63
2018-12-03T21:52:28.309Z,11.64
2018-12-03T21:55:31.867Z,11.61
2018-12-03T21:58:35.417Z,11.63
2018-12-03T22:01:38.868Z,11.62
2018-12-03T22:04:42.506Z,11.60
2018-12-03T22:07:46.049Z,11.60
2018-12-03T22:10:49.555Z,11.56
2018-12-03T22:13:53.069Z,11.57
2018-12-03T22:16:56.543Z,11.56
2018-12-03T22:20:00.052Z,11.54
2018-12-03T22:23:03.613Z,11.52
2018-12-03T22:26:07.340Z,11.48
2018-12-03T22:29:11.073Z,11.43
2018-12-03T22:32:14.623Z,11.38
2018-12-03T22:35:18.095Z,11.40
2018-12-03T22:38:21.647Z,11.39
2018-12-03T22:41:25.334Z,11.35
2018-12-03T22:44:28.760Z,11.38
2018-12-03T22:47:32.312Z,11.33
2018-12-03T22:50:35.975Z,11.37
2018-12-03T22:53:39.549Z,11.34
2018-12-03T22:56:42.955Z,11.38
2018-12-03T22:59:46.475Z,11.38
2018-12-03T23:02:50.026Z,11.44
2018-12-03T23:05:53.593Z,11.42
2018-12-03T23:08:57.176Z,11.41
2018-12-03T23:12:00.782Z,11.38
2018-12-03T23:15:04.540Z,11.35
2018-12-03T23:18:08.013Z,11.26
2018-12-03T23:21:11.513Z,11.24
2018-12-03T23:24:15.086Z,11.23
2018-12-03T23:27:18.488Z,11.21
2018-12-03T23:30:22.031Z,11.26
2018-12-03T23:33:25.607Z,11.25
2018-12-03T23:36:28.975Z,11.22
2018-12-03T23:39:32.379Z,11.21
2018-12-03T23:42:35.852Z,11.25
2018-12-03T23:45:39.395Z,11.21
2018-12-03T23:48:42.960Z,11.20
2018-12-03T23:51:46.574Z,11.20
2018-12-03T23:54:50.160Z,11.20
2018-12-03T23:57:53.764Z,11.18
